createdAt,value
2023-02-14T00:02:11.658Z,2.55
2023-02-14T00:04:38.135Z,2.51
2023-02-14T00:07:04.493Z,2.47
2023-02-14T00:09:30.881Z,2.48
2023-02-14T00:11:58.568Z,2.44
2023-02-14T00:14:24.928Z,2.42
2023-02-14T00:16:51.774Z,2.42
2023-02-14T00:19:18.830Z,2.40
2023-02-14T00:21:45.280Z,2.41
2023-02-14T00:24:12.828Z,2.41
2023-02-14T00:26:39.718Z,2.46
2023-02-14T00:29:08.430Z,2.53
2023-02-14T00:31:35.263Z,2.59
2023-02-14T00:34:01.660Z,2.64
2023-02-14T00:36:27.990Z,2.65
2023-02-14T00:38:54.347Z,2.70
2023-02-14T00:41:20.727Z,2.79
2023-02-14T00:43:47.328Z,2.82
2023-02-14T00:46:15.609Z,2.84
2023-02-14T00:48:42.322Z,2.88
2023-02-14T00:51:09.202Z,2.86
2023-02-14T00:53:35.546Z,2.80
2023-02-14T00:56:01.990Z,2.74
2023-02-14T00:58:28.297Z,2.74
2023-02-14T01:00:54.740Z,2.77
2023-02-14T01:03:22.412Z,2.76
2023-02-14T01:05:48.753Z,2.78
2023-02-14T01:08:15.081Z,2.77
2023-02-14T01:10:41.503Z,2.78
2023-02-14T01:13:07.797Z,2.81
2023-02-14T01:15:38.083Z,2.84
2023-02-14T01:18:04.502Z,2.88
2023-02-14T01:20:32.458Z,2.92
2023-02-14T01:22:58.761Z,2.96
2023-02-14T01:25:25.074Z,2.99
2023-02-14T01:27:51.464Z,2.99
2023-02-14T01:30:18.231Z,2.94
2023-02-14T01:32:44.668Z,2.89
2023-02-14T01:35:11.379Z,2.89
2023-02-14T01:37:39.040Z,2.91
2023-02-14T01:40:06.982Z,2.91
2023-02-14T01:42:34.140Z,2.95
2023-02-14T01:45:02.526Z,2.96
2023-02-14T01:47:30.645Z,2.98
2023-02-14T01:49:59.693Z,2.95
2023-02-14T01:52:27.784Z,2.94
2023-02-14T01:54:57.739Z,2.91
2023-02-14T01:57:26.780Z,2.92
2023-02-14T01:59:55.361Z,2.90
2023-02-14T02:02:22.109Z,2.89
2023-02-14T02:04:48.973Z,2.86
2023-02-14T02:07:18.352Z,2.82
2023-02-14T02:09:47.011Z,2.81
2023-02-14T02:12:14.798Z,2.78
2023-02-14T02:14:41.538Z,2.77
2023-02-14T02:17:15.936Z,2.79
2023-02-14T02:20:00.371Z,2.82
2023-02-14T02:22:47.782Z,2.85
2023-02-14T02:25:22.688Z,2.88
2023-02-14T02:28:10.033Z,2.86
2023-02-14T02:30:42.457Z,2.84
2023-02-14T02:33:27.560Z,2.80
2023-02-14T02:36:08.799Z,2.78
2023-02-14T02:38:45.435Z,2.77
2023-02-14T02:41:17.474Z,2.77
2023-02-14T02:43:49.892Z,2.75
2023-02-14T02:46:18.982Z,2.73
2023-02-14T02:48:48.517Z,2.71
2023-02-14T02:51:17.573Z,2.69
2023-02-14T02:53:50.282Z,2.68
2023-02-14T02:56:19.103Z,2.68
2023-02-14T02:58:46.762Z,2.67
2023-02-14T03:01:14.801Z,2.66
2023-02-14T03:03:44.015Z,2.66
2023-02-14T03:06:10.357Z,2.67
2023-02-14T03:08:36.677Z,2.66
2023-02-14T03:11:04.852Z,2.65
2023-02-14T03:13:42.756Z,2.66
2023-02-14T03:16:21.842Z,2.65
2023-02-14T03:18:57.750Z,2.61
2023-02-14T03:21:28.648Z,2.58
2023-02-14T03:23:57.777Z,2.55
2023-02-14T03:26:29.826Z,2.52
2023-02-14T03:29:00.073Z,2.49
2023-02-14T03:31:31.033Z,2.51
2023-02-14T03:33:59.414Z,2.51
2023-02-14T03:36:27.779Z,2.53
2023-02-14T03:38:56.593Z,2.54
2023-02-14T03:41:24.528Z,2.55
2023-02-14T03:43:53.393Z,2.56
2023-02-14T03:46:22.645Z,2.55
2023-02-14T03:48:51.345Z,2.54
2023-02-14T03:51:19.375Z,2.53
2023-02-14T03:53:47.636Z,2.53
2023-02-14T03:56:15.221Z,2.52
2023-02-14T03:58:43.555Z,2.50
2023-02-14T04:01:14.490Z,2.49
2023-02-14T04:03:42.361Z,2.49
2023-02-14T04:06:09.531Z,2.48
2023-02-14T04:08:35.830Z,2.45
2023-02-14T04:11:03.189Z,2.40
2023-02-14T04:13:29.570Z,2.37
2023-02-14T04:15:55.921Z,2.30
2023-02-14T04:18:23.633Z,2.24
2023-02-14T04:20:49.929Z,2.18
2023-02-14T04:23:16.261Z,2.14
2023-02-14T04:25:42.612Z,2.10
2023-02-14T04:28:09.302Z,2.04
2023-02-14T04:30:35.594Z,1.99
2023-02-14T04:33:02.505Z,1.94
2023-02-14T04:35:30.289Z,1.89
2023-02-14T04:37:56.654Z,1.88
2023-02-14T04:40:23.066Z,1.87
2023-02-14T04:42:49.386Z,1.83
2023-02-14T04:45:15.727Z,1.83
2023-02-14T04:47:42.069Z,1.87
2023-02-14T04:50:08.755Z,1.85
2023-02-14T04:52:36.451Z,1.87
2023-02-14T04:55:02.804Z,1.87
2023-02-14T04:57:29.195Z,1.86
2023-02-14T04:59:55.615Z,1.81
2023-02-14T05:02:22.077Z,1.78
2023-02-14T05:04:49.796Z,1.79
2023-02-14T05:07:16.249Z,1.78
2023-02-14T05:09:43.886Z,1.79
2023-02-14T05:12:10.254Z,1.81
2023-02-14T05:14:36.611Z,1.82
2023-02-14T05:17:02.929Z,1.81
2023-02-14T05:19:29.218Z,1.81
2023-02-14T05:21:55.528Z,1.81
2023-02-14T05:24:21.823Z,1.81
2023-02-14T05:26:49.443Z,1.82
2023-02-14T05:29:15.726Z,1.81
2023-02-14T05:31:42.143Z,1.81
2023-02-14T05:34:08.523Z,1.81
2023-02-14T05:36:34.816Z,1.78
2023-02-14T05:39:01.112Z,1.79
2023-02-14T05:41:27.448Z,1.81
2023-02-14T05:43:55.073Z,1.79
2023-02-14T05:46:21.402Z,1.76
2023-02-14T05:48:47.712Z,1.73
2023-02-14T05:51:14.012Z,1.72
2023-02-14T05:53:40.301Z,1.71
2023-02-14T05:56:06.905Z,1.71
2023-02-14T05:58:33.336Z,1.71
2023-02-14T06:01:01.388Z,1.71
2023-02-14T06:03:28.114Z,1.71
2023-02-14T06:05:54.634Z,1.72
2023-02-14T06:08:20.971Z,1.72
2023-02-14T06:10:47.283Z,1.70
2023-02-14T06:13:13.707Z,1.72
2023-02-14T06:15:40.030Z,1.76
2023-02-14T06:18:07.689Z,1.80
2023-02-14T06:20:34.060Z,1.82
2023-02-14T06:23:00.399Z,1.83
2023-02-14T06:25:26.719Z,1.84
2023-02-14T06:27:55.633Z,1.83
2023-02-14T06:30:22.014Z,1.82
2023-02-14T06:32:48.383Z,1.80
2023-02-14T06:35:16.327Z,1.79
2023-02-14T06:37:42.620Z,1.79
2023-02-14T06:40:09.750Z,1.79
2023-02-14T06:42:36.065Z,1.79
2023-02-14T06:45:02.376Z,1.76
2023-02-14T06:47:28.661Z,1.73
2023-02-14T06:49:54.990Z,1.74
2023-02-14T06:52:22.632Z,1.74
2023-02-14T06:54:48.922Z,1.76
2023-02-14T06:57:15.201Z,1.74
2023-02-14T06:59:41.534Z,1.76
2023-02-14T07:02:09.849Z,1.73
2023-02-14T07:04:36.179Z,1.72
2023-02-14T07:07:02.511Z,1.73
2023-02-14T07:09:30.218Z,1.73
2023-02-14T07:11:56.521Z,1.71
2023-02-14T07:14:22.961Z,1.67
2023-02-14T07:16:49.279Z,1.66
2023-02-14T07:19:15.574Z,1.65
2023-02-14T07:21:41.944Z,1.63
2023-02-14T07:24:08.229Z,1.62
2023-02-14T07:26:35.894Z,1.63
2023-02-14T07:29:02.241Z,1.68
2023-02-14T07:31:28.616Z,1.76
2023-02-14T07:33:54.992Z,1.83
2023-02-14T07:36:21.309Z,1.89
2023-02-14T07:38:47.637Z,1.96
2023-02-14T07:41:13.950Z,2.03
2023-02-14T07:43:41.609Z,2.08
2023-02-14T07:46:07.928Z,2.14
2023-02-14T07:48:34.771Z,2.22
2023-02-14T07:51:01.578Z,2.26
2023-02-14T07:53:28.150Z,2.32
2023-02-14T07:55:54.764Z,2.38
2023-02-14T07:58:21.171Z,2.44
2023-02-14T08:00:48.844Z,2.49
2023-02-14T08:03:15.493Z,2.55
2023-02-14T08:05:42.004Z,2.60
2023-02-14T08:08:08.311Z,2.63
2023-02-14T08:10:34.672Z,2.68
2023-02-14T08:13:01.070Z,2.73
2023-02-14T08:15:28.454Z,2.79
2023-02-14T08:17:56.897Z,2.84
2023-02-14T08:20:23.220Z,2.91
2023-02-14T08:22:49.559Z,2.98
2023-02-14T08:25:15.915Z,3.05
2023-02-14T08:27:42.237Z,3.08
2023-02-14T08:30:08.994Z,3.13
2023-02-14T08:32:35.652Z,3.20
2023-02-14T08:35:03.393Z,3.27
2023-02-14T08:37:29.721Z,3.36
2023-02-14T08:39:56.011Z,3.43
2023-02-14T08:42:22.322Z,3.53
2023-02-14T08:44:48.631Z,3.62
2023-02-14T08:47:14.972Z,3.72
2023-02-14T08:49:41.320Z,3.79
2023-02-14T08:52:09.043Z,3.88
2023-02-14T08:54:35.389Z,3.95
2023-02-14T08:57:01.724Z,4.02
2023-02-14T08:59:28.073Z,4.11
2023-02-14T09:01:54.456Z,4.16
2023-02-14T09:04:20.896Z,4.24
2023-02-14T09:06:47.240Z,4.31
2023-02-14T09:09:14.917Z,4.37
2023-02-14T09:11:41.257Z,4.48
2023-02-14T09:14:07.621Z,4.59
2023-02-14T09:16:33.980Z,4.70
2023-02-14T09:19:00.330Z,4.81
2023-02-14T09:21:27.653Z,4.93
2023-02-14T09:23:54.243Z,5.03
2023-02-14T09:26:22.032Z,5.13
2023-02-14T09:28:48.725Z,5.19
2023-02-14T09:31:16.407Z,5.32
2023-02-14T09:33:43.411Z,5.44
2023-02-14T09:36:09.794Z,5.56
2023-02-14T09:38:36.097Z,5.67
2023-02-14T09:41:05.326Z,5.80
2023-02-14T09:43:36.474Z,5.89
2023-02-14T09:46:03.836Z,5.99
2023-02-14T09:48:32.414Z,6.11
2023-02-14T09:51:01.371Z,6.21
2023-02-14T09:53:29.162Z,6.31
2023-02-14T09:56:01.109Z,6.42
2023-02-14T09:58:29.858Z,6.52
2023-02-14T10:01:02.334Z,6.63
2023-02-14T10:03:34.566Z,6.75
2023-02-14T10:06:04.660Z,6.86
2023-02-14T10:08:41.092Z,6.93
2023-02-14T10:11:10.612Z,7.03
2023-02-14T10:13:40.130Z,7.13
2023-02-14T10:16:11.251Z,7.21
2023-02-14T10:18:40.969Z,7.30
2023-02-14T10:21:07.707Z,7.40
2023-02-14T10:23:36.458Z,7.50
2023-02-14T10:26:04.481Z,7.56
2023-02-14T10:28:32.186Z,7.63
2023-02-14T10:31:04.336Z,7.70
2023-02-14T10:33:34.068Z,7.79
2023-02-14T10:36:03.094Z,7.89
2023-02-14T10:38:37.690Z,7.98
2023-02-14T10:41:07.515Z,8.10
2023-02-14T10:43:39.856Z,8.20
2023-02-14T10:46:11.142Z,8.32
2023-02-14T10:48:43.417Z,8.39
2023-02-14T10:51:15.206Z,8.51
2023-02-14T10:53:45.070Z,8.61
2023-02-14T10:56:16.522Z,8.68
2023-02-14T10:58:43.079Z,8.72
2023-02-14T11:01:12.073Z,8.76
2023-02-14T11:03:43.602Z,8.83
2023-02-14T11:06:10.378Z,8.91
2023-02-14T11:08:38.014Z,9.00
2023-02-14T11:11:10.701Z,9.11
2023-02-14T11:13:37.920Z,9.17
2023-02-14T11:16:05.438Z,9.21
2023-02-14T11:18:32.158Z,9.25
2023-02-14T11:21:04.705Z,9.33
2023-02-14T11:23:35.343Z,9.40
2023-02-14T11:26:02.862Z,9.44
2023-02-14T11:28:29.505Z,9.43
2023-02-14T11:30:56.134Z,9.45
2023-02-14T11:33:27.740Z,9.49
2023-02-14T11:35:54.232Z,9.54
2023-02-14T11:38:26.387Z,9.57
2023-02-14T11:40:54.621Z,9.53
2023-02-14T11:43:29.671Z,9.50
2023-02-14T11:46:05.319Z,9.50
2023-02-14T11:48:38.245Z,9.44
2023-02-14T11:51:06.363Z,9.48
2023-02-14T11:53:39.794Z,9.55
2023-02-14T11:56:06.244Z,9.58
2023-02-14T11:58:34.990Z,9.62
2023-02-14T12:01:01.723Z,9.72
2023-02-14T12:03:28.436Z,9.74
2023-02-14T12:05:55.808Z,9.78
2023-02-14T12:08:24.683Z,9.80
2023-02-14T12:11:02.190Z,9.82
2023-02-14T12:13:28.765Z,9.84
2023-02-14T12:15:56.120Z,9.86
2023-02-14T12:18:27.647Z,9.90
2023-02-14T12:20:56.439Z,9.95
2023-02-14T12:23:25.300Z,10.03
2023-02-14T12:25:56.323Z,10.07
2023-02-14T12:28:28.079Z,10.14
2023-02-14T12:30:54.469Z,10.18
2023-02-14T12:33:21.962Z,10.29
2023-02-14T12:35:54.335Z,10.39
2023-02-14T12:38:25.093Z,10.45
2023-02-14T12:40:57.033Z,10.46
2023-02-14T12:43:34.169Z,10.48
2023-02-14T12:46:14.942Z,10.53
2023-02-14T12:48:50.139Z,10.64
2023-02-14T12:51:20.742Z,10.77
2023-02-14T12:54:01.935Z,10.88
2023-02-14T12:56:36.176Z,10.95
2023-02-14T12:59:10.832Z,11.03
2023-02-14T13:01:56.194Z,11.09
2023-02-14T13:04:32.150Z,11.15
2023-02-14T13:07:01.268Z,11.16
2023-02-14T13:09:34.955Z,11.20
2023-02-14T13:12:08.066Z,11.21
2023-02-14T13:14:44.572Z,11.21
2023-02-14T13:17:15.624Z,11.22
2023-02-14T13:19:47.406Z,11.21
2023-02-14T13:22:17.054Z,11.22
2023-02-14T13:24:44.842Z,11.23
2023-02-14T13:27:13.660Z,11.27
2023-02-14T13:29:44.841Z,11.24
2023-02-14T13:32:13.840Z,11.17
2023-02-14T13:34:43.564Z,11.14
2023-02-14T13:37:11.486Z,11.07
2023-02-14T13:39:40.925Z,10.99
2023-02-14T13:42:07.712Z,10.98
2023-02-14T13:44:45.104Z,10.93
2023-02-14T13:47:18.765Z,10.90
2023-02-14T13:49:49.912Z,10.86
2023-02-14T13:52:31.089Z,10.83
2023-02-14T13:55:01.307Z,10.77
2023-02-14T13:57:30.104Z,10.72
2023-02-14T14:00:14.103Z,10.70
2023-02-14T14:02:45.508Z,10.71
2023-02-14T14:05:30.347Z,10.70
2023-02-14T14:08:11.526Z,10.68
2023-02-14T14:10:42.562Z,10.67
2023-02-14T14:13:08.846Z,10.67
2023-02-14T14:15:35.189Z,10.67
2023-02-14T14:18:20.076Z,10.67
2023-02-14T14:20:47.986Z,10.63
2023-02-14T14:23:29.445Z,10.62
2023-02-14T14:25:55.747Z,10.62
2023-02-14T14:28:24.203Z,10.61
2023-02-14T14:30:50.775Z,10.62
2023-02-14T14:33:23.674Z,10.63
2023-02-14T14:35:53.752Z,10.62
2023-02-14T14:38:20.091Z,10.61
2023-02-14T14:40:47.664Z,10.60
2023-02-14T14:43:16.093Z,10.61
2023-02-14T14:45:45.582Z,10.61
2023-02-14T14:48:13.384Z,10.62
2023-02-14T14:50:44.067Z,10.62
2023-02-14T14:53:19.843Z,10.62
2023-02-14T14:55:46.719Z,10.62
2023-02-14T14:58:31.992Z,10.61
2023-02-14T15:00:58.344Z,10.62
2023-02-14T15:03:25.954Z,10.67
2023-02-14T15:06:02.239Z,10.69
2023-02-14T15:08:30.483Z,10.73
2023-02-14T15:10:59.215Z,10.81
2023-02-14T15:13:29.805Z,11.02
2023-02-14T15:15:56.717Z,11.23
2023-02-14T15:18:23.271Z,11.56
2023-02-14T15:20:49.969Z,12.05
2023-02-14T15:23:17.476Z,12.29
2023-02-14T15:25:46.228Z,12.47
2023-02-14T15:28:14.591Z,12.92
2023-02-14T15:30:40.957Z,13.34
2023-02-14T15:33:07.759Z,13.48
2023-02-14T15:35:39.103Z,13.56
2023-02-14T15:38:06.847Z,13.87
2023-02-14T15:40:33.906Z,14.13
2023-02-14T15:43:12.518Z,13.77
2023-02-14T15:45:38.960Z,13.24
2023-02-14T15:48:11.509Z,13.07
2023-02-14T15:50:43.397Z,13.12
2023-02-14T15:53:23.824Z,13.30
2023-02-14T15:55:50.483Z,13.58
2023-02-14T15:58:20.158Z,13.79
2023-02-14T16:00:46.732Z,13.93
2023-02-14T16:03:18.416Z,14.13
2023-02-14T16:05:46.143Z,14.20
2023-02-14T16:08:25.024Z,13.83
2023-02-14T16:10:58.482Z,13.29
2023-02-14T16:13:30.426Z,12.89
2023-02-14T16:15:57.607Z,12.52
2023-02-14T16:18:32.688Z,12.31
2023-02-14T16:21:09.303Z,12.20
2023-02-14T16:23:37.055Z,12.23
2023-02-14T16:26:05.055Z,12.17
2023-02-14T16:28:33.309Z,12.00
2023-02-14T16:31:01.035Z,11.79
2023-02-14T16:33:28.776Z,11.47
2023-02-14T16:35:56.935Z,11.14
2023-02-14T16:38:23.243Z,10.84
2023-02-14T16:40:50.455Z,10.57
2023-02-14T16:43:17.722Z,10.33
2023-02-14T16:45:45.723Z,10.11
2023-02-14T16:48:12.574Z,9.88
2023-02-14T16:50:39.507Z,9.70
2023-02-14T16:53:08.007Z,9.52
2023-02-14T16:55:34.469Z,9.38
2023-02-14T16:58:01.983Z,9.24
2023-02-14T17:00:28.301Z,9.10
2023-02-14T17:02:56.102Z,8.95
2023-02-14T17:05:22.456Z,8.81
2023-02-14T17:07:48.814Z,8.66
2023-02-14T17:10:17.401Z,8.53
2023-02-14T17:12:45.642Z,8.36
2023-02-14T17:15:13.263Z,8.22
2023-02-14T17:17:39.835Z,8.06
2023-02-14T17:20:08.515Z,7.94
2023-02-14T17:22:34.826Z,7.83
2023-02-14T17:25:01.165Z,7.77
2023-02-14T17:27:27.477Z,7.68
2023-02-14T17:29:53.935Z,7.66
2023-02-14T17:32:20.370Z,7.65
2023-02-14T17:34:46.755Z,7.62
2023-02-14T17:37:14.434Z,7.61
2023-02-14T17:39:40.867Z,7.58
2023-02-14T17:42:07.185Z,7.53
2023-02-14T17:44:33.604Z,7.43
2023-02-14T17:46:59.919Z,7.30
2023-02-14T17:49:26.222Z,7.20
2023-02-14T17:51:52.540Z,7.08
2023-02-14T17:54:20.215Z,7.00
2023-02-14T17:56:47.875Z,6.93
2023-02-14T17:59:14.244Z,6.85
2023-02-14T18:01:40.563Z,6.78
2023-02-14T18:04:07.077Z,6.69
2023-02-14T18:06:33.441Z,6.69
2023-02-14T18:08:59.772Z,6.69
2023-02-14T18:11:28.060Z,6.69
2023-02-14T18:13:54.609Z,6.69
2023-02-14T18:16:21.216Z,6.66
2023-02-14T18:18:47.813Z,6.64
2023-02-14T18:21:14.901Z,6.60
2023-02-14T18:23:41.653Z,6.57
2023-02-14T18:26:09.810Z,6.49
2023-02-14T18:28:37.973Z,6.44
2023-02-14T18:31:05.192Z,6.28
2023-02-14T18:33:31.553Z,6.18
2023-02-14T18:36:00.696Z,6.17
2023-02-14T18:38:27.005Z,6.17
2023-02-14T18:40:53.322Z,6.16
2023-02-14T18:43:19.620Z,6.18
2023-02-14T18:45:47.308Z,6.20
2023-02-14T18:48:13.628Z,6.18
2023-02-14T18:50:39.962Z,6.08
2023-02-14T18:53:06.229Z,6.01
2023-02-14T18:55:32.502Z,5.95
2023-02-14T18:57:58.813Z,5.86
2023-02-14T19:00:25.225Z,5.81
2023-02-14T19:02:52.885Z,5.72
2023-02-14T19:05:19.324Z,5.67
2023-02-14T19:07:45.653Z,5.57
2023-02-14T19:10:11.999Z,5.49
2023-02-14T19:12:38.323Z,5.43
2023-02-14T19:15:04.870Z,5.38
2023-02-14T19:17:31.216Z,5.39
2023-02-14T19:19:58.909Z,5.38
2023-02-14T19:22:25.233Z,5.38
2023-02-14T19:24:51.886Z,5.36
2023-02-14T19:27:18.260Z,5.33
2023-02-14T19:29:44.658Z,5.22
2023-02-14T19:32:11.065Z,5.16
2023-02-14T19:34:37.390Z,5.13
2023-02-14T19:37:05.201Z,5.10
2023-02-14T19:39:31.512Z,5.06
2023-02-14T19:41:58.790Z,5.02
2023-02-14T19:44:25.177Z,4.98
2023-02-14T19:46:52.239Z,4.94
2023-02-14T19:49:19.239Z,4.86
2023-02-14T19:51:46.042Z,4.82
2023-02-14T19:54:13.758Z,4.79
2023-02-14T19:56:40.817Z,4.75
2023-02-14T19:59:07.471Z,4.77
2023-02-14T20:01:35.010Z,4.71
2023-02-14T20:04:01.458Z,4.69
2023-02-14T20:06:27.814Z,4.66
2023-02-14T20:08:54.107Z,4.60
2023-02-14T20:11:26.555Z,4.54
2023-02-14T20:13:53.066Z,4.51
2023-02-14T20:16:19.411Z,4.41
2023-02-14T20:18:45.725Z,4.35
2023-02-14T20:21:14.905Z,4.26
2023-02-14T20:23:41.233Z,4.25
2023-02-14T20:26:10.812Z,4.21
2023-02-14T20:28:38.502Z,4.17
2023-02-14T20:31:06.251Z,4.14
2023-02-14T20:33:32.669Z,4.10
2023-02-14T20:35:58.991Z,4.07
2023-02-14T20:38:25.318Z,4.01
2023-02-14T20:40:51.648Z,4.02
2023-02-14T20:43:17.962Z,4.04
2023-02-14T20:45:45.624Z,4.06
2023-02-14T20:48:11.927Z,4.06
2023-02-14T20:50:38.283Z,4.06
2023-02-14T20:53:04.603Z,3.98
2023-02-14T20:55:30.918Z,3.88
2023-02-14T20:57:57.440Z,3.80
2023-02-14T21:00:23.758Z,3.74
2023-02-14T21:02:51.403Z,3.71
2023-02-14T21:05:17.713Z,3.67
2023-02-14T21:07:44.007Z,3.61
2023-02-14T21:10:10.498Z,3.59
2023-02-14T21:12:36.865Z,3.59
2023-02-14T21:15:03.273Z,3.60
2023-02-14T21:17:29.621Z,3.62
2023-02-14T21:19:57.293Z,3.66
2023-02-14T21:22:23.720Z,3.66
2023-02-14T21:24:50.064Z,3.64
2023-02-14T21:27:16.407Z,3.60
2023-02-14T21:29:42.870Z,3.56
2023-02-14T21:32:09.260Z,3.49
2023-02-14T21:34:35.601Z,3.50
2023-02-14T21:37:03.278Z,3.49
2023-02-14T21:39:29.646Z,3.39
2023-02-14T21:41:55.936Z,3.33
2023-02-14T21:44:22.440Z,3.35
2023-02-14T21:46:48.746Z,3.20
2023-02-14T21:49:15.066Z,3.11
2023-02-14T21:51:41.837Z,3.05
2023-02-14T21:54:09.699Z,3.05
2023-02-14T21:56:37.036Z,3.01
2023-02-14T21:59:03.685Z,2.97
2023-02-14T22:01:31.393Z,2.92
2023-02-14T22:03:58.084Z,2.86
2023-02-14T22:06:25.122Z,2.89
2023-02-14T22:08:51.988Z,2.91
2023-02-14T22:11:20.039Z,2.94
2023-02-14T22:13:46.348Z,2.96
2023-02-14T22:16:14.075Z,2.97
2023-02-14T22:18:40.974Z,3.01
2023-02-14T22:21:08.199Z,3.06
2023-02-14T22:23:34.999Z,3.11
2023-02-14T22:26:07.233Z,3.08
2023-02-14T22:28:34.858Z,2.99
2023-02-14T22:31:01.537Z,2.96
2023-02-14T22:33:28.205Z,2.91
2023-02-14T22:35:54.643Z,2.89
2023-02-14T22:38:20.975Z,2.85
2023-02-14T22:40:47.289Z,2.88
2023-02-14T22:43:13.607Z,2.90
2023-02-14T22:45:41.285Z,3.01
2023-02-14T22:48:07.580Z,3.01
2023-02-14T22:50:33.888Z,2.96
2023-02-14T22:53:01.058Z,2.86
2023-02-14T22:55:27.357Z,2.85
2023-02-14T22:57:53.757Z,2.82
2023-02-14T23:00:20.115Z,2.78
2023-02-14T23:02:47.865Z,2.77
2023-02-14T23:05:14.357Z,2.74
2023-02-14T23:07:40.910Z,2.66
2023-02-14T23:10:07.734Z,2.63
2023-02-14T23:12:34.171Z,2.58
2023-02-14T23:15:00.499Z,2.56
2023-02-14T23:17:26.785Z,2.51
2023-02-14T23:19:54.451Z,2.46
2023-02-14T23:22:21.552Z,2.44
2023-02-14T23:24:49.036Z,2.36
2023-02-14T23:27:16.550Z,2.30
2023-02-14T23:29:42.894Z,2.27
2023-02-14T23:32:09.659Z,2.30
2023-02-14T23:34:37.753Z,2.37
2023-02-14T23:37:05.566Z,2.46
2023-02-14T23:39:31.853Z,2.54
2023-02-14T23:41:58.156Z,2.56
2023-02-14T23:44:25.326Z,2.52
2023-02-14T23:46:52.968Z,2.43
2023-02-14T23:49:19.654Z,2.39
2023-02-14T23:51:46.610Z,2.31
2023-02-14T23:54:14.681Z,2.23
2023-02-14T23:56:41.246Z,2.17
2023-02-14T23:59:07.950Z,2.12
